sensor_id;sensor_type;location;lat;lon;timestamp;temperature;humidity
71177;DHT22;58877;51.992;4.504;2022-07-23T00:01:20;16.76;73.97
71177;DHT22;58877;51.992;4.504;2022-07-23T00:03:46;16.75;74.12
71177;DHT22;58877;51.992;4.504;2022-07-23T00:06:11;16.82;73.92
71177;DHT22;58877;51.992;4.504;2022-07-23T00:08:37;16.88;73.96
71177;DHT22;58877;51.992;4.504;2022-07-23T00:11:03;16.88;73.81
71177;DHT22;58877;51.992;4.504;2022-07-23T00:13:28;16.82;74.04
71177;DHT22;58877;51.992;4.504;2022-07-23T00:15:54;16.86;73.98
71177;DHT22;58877;51.992;4.504;2022-07-23T00:18:20;16.73;74.66
71177;DHT22;58877;51.992;4.504;2022-07-23T00:20:46;16.66;75.10
71177;DHT22;58877;51.992;4.504;2022-07-23T00:23:11;16.68;75.56
71177;DHT22;58877;51.992;4.504;2022-07-23T00:25:37;16.68;75.78
71177;DHT22;58877;51.992;4.504;2022-07-23T00:28:03;16.71;75.43
71177;DHT22;58877;51.992;4.504;2022-07-23T00:30:30;16.68;75.23
71177;DHT22;58877;51.992;4.504;2022-07-23T00:32:59;16.65;75.33
71177;DHT22;58877;51.992;4.504;2022-07-23T00:35:27;16.65;75.88
71177;DHT22;58877;51.992;4.504;2022-07-23T00:37:53;16.62;75.92
71177;DHT22;58877;51.992;4.504;2022-07-23T00:40:19;16.64;76.28
71177;DHT22;58877;51.992;4.504;2022-07-23T00:42:45;16.66;75.62
71177;DHT22;58877;51.992;4.504;2022-07-23T00:45:11;16.71;75.59
71177;DHT22;58877;51.992;4.504;2022-07-23T00:47:37;16.62;75.56
71177;DHT22;58877;51.992;4.504;2022-07-23T00:50:07;16.61;75.64
71177;DHT22;58877;51.992;4.504;2022-07-23T00:52:35;16.61;75.89
71177;DHT22;58877;51.992;4.504;2022-07-23T00:55:01;16.61;75.66
71177;DHT22;58877;51.992;4.504;2022-07-23T00:57:27;16.52;75.72
71177;DHT22;58877;51.992;4.504;2022-07-23T00:59:52;16.48;75.99
71177;DHT22;58877;51.992;4.504;2022-07-23T01:02:18;16.55;75.81
71177;DHT22;58877;51.992;4.504;2022-07-23T01:04:44;16.52;75.82
71177;DHT22;58877;51.992;4.504;2022-07-23T01:07:12;16.44;76.24
71177;DHT22;58877;51.992;4.504;2022-07-23T01:09:38;16.44;76.32
71177;DHT22;58877;51.992;4.504;2022-07-23T01:12:04;16.48;76.13
71177;DHT22;58877;51.992;4.504;2022-07-23T01:14:30;16.45;76.17
71177;DHT22;58877;51.992;4.504;2022-07-23T01:16:56;16.47;76.26
71177;DHT22;58877;51.992;4.504;2022-07-23T01:19:21;16.42;76.41
71177;DHT22;58877;51.992;4.504;2022-07-23T01:21:50;16.49;76.16
71177;DHT22;58877;51.992;4.504;2022-07-23T01:24:17;16.48;76.21
71177;DHT22;58877;51.992;4.504;2022-07-23T01:26:46;16.41;76.00
71177;DHT22;58877;51.992;4.504;2022-07-23T01:29:13;16.37;76.24
71177;DHT22;58877;51.992;4.504;2022-07-23T01:31:39;16.28;76.49
71177;DHT22;58877;51.992;4.504;2022-07-23T01:34:05;16.15;77.05
71177;DHT22;58877;51.992;4.504;2022-07-23T01:36:35;16.05;77.50
71177;DHT22;58877;51.992;4.504;2022-07-23T01:39:03;15.97;77.67
71177;DHT22;58877;51.992;4.504;2022-07-23T01:41:29;15.98;77.95
71177;DHT22;58877;51.992;4.504;2022-07-23T01:43:55;15.97;77.97
71177;DHT22;58877;51.992;4.504;2022-07-23T01:46:21;16.03;77.88
71177;DHT22;58877;51.992;4.504;2022-07-23T01:48:48;16.05;77.87
71177;DHT22;58877;51.992;4.504;2022-07-23T01:51:14;16.05;77.79
71177;DHT22;58877;51.992;4.504;2022-07-23T01:53:40;16.08;77.84
71177;DHT22;58877;51.992;4.504;2022-07-23T01:56:06;16.05;78.11
71177;DHT22;58877;51.992;4.504;2022-07-23T01:58:32;16.04;78.43
71177;DHT22;58877;51.992;4.504;2022-07-23T02:00:57;16.01;78.40
71177;DHT22;58877;51.992;4.504;2022-07-23T02:03:23;15.94;78.52
71177;DHT22;58877;51.992;4.504;2022-07-23T02:05:49;15.90;78.68
71177;DHT22;58877;51.992;4.504;2022-07-23T02:08:15;15.89;78.68
71177;DHT22;58877;51.992;4.504;2022-07-23T02:10:41;15.89;78.83
71177;DHT22;58877;51.992;4.504;2022-07-23T02:13:07;15.86;78.79
71177;DHT22;58877;51.992;4.504;2022-07-23T02:15:33;15.83;78.75
71177;DHT22;58877;51.992;4.504;2022-07-23T02:17:59;15.81;79.03
71177;DHT22;58877;51.992;4.504;2022-07-23T02:20:25;15.83;79.01
71177;DHT22;58877;51.992;4.504;2022-07-23T02:22:50;15.86;79.02
71177;DHT22;58877;51.992;4.504;2022-07-23T02:25:16;15.83;78.80
71177;DHT22;58877;51.992;4.504;2022-07-23T02:27:42;15.79;78.94
71177;DHT22;58877;51.992;4.504;2022-07-23T02:30:08;15.80;78.93
71177;DHT22;58877;51.992;4.504;2022-07-23T02:32:34;15.84;78.80
71177;DHT22;58877;51.992;4.504;2022-07-23T02:35:01;15.93;78.47
71177;DHT22;58877;51.992;4.504;2022-07-23T02:37:27;15.86;78.51
71177;DHT22;58877;51.992;4.504;2022-07-23T02:39:53;15.77;78.74
71177;DHT22;58877;51.992;4.504;2022-07-23T02:42:39;15.74;78.83
71177;DHT22;58877;51.992;4.504;2022-07-23T02:45:05;15.70;79.06
71177;DHT22;58877;51.992;4.504;2022-07-23T02:47:31;15.71;78.85
71177;DHT22;58877;51.992;4.504;2022-07-23T02:49:57;15.74;79.02
71177;DHT22;58877;51.992;4.504;2022-07-23T02:52:23;15.77;78.90
71177;DHT22;58877;51.992;4.504;2022-07-23T02:54:48;15.67;78.92
71177;DHT22;58877;51.992;4.504;2022-07-23T02:57:14;15.64;79.32
71177;DHT22;58877;51.992;4.504;2022-07-23T02:59:40;15.63;79.44
71177;DHT22;58877;51.992;4.504;2022-07-23T03:02:05;15.61;79.71
71177;DHT22;58877;51.992;4.504;2022-07-23T03:04:31;15.63;79.94
71177;DHT22;58877;51.992;4.504;2022-07-23T03:06:57;15.64;79.96
71177;DHT22;58877;51.992;4.504;2022-07-23T03:09:22;15.66;80.01
71177;DHT22;58877;51.992;4.504;2022-07-23T03:11:48;15.73;79.69
71177;DHT22;58877;51.992;4.504;2022-07-23T03:14:14;15.76;79.28
71177;DHT22;58877;51.992;4.504;2022-07-23T03:16:44;15.74;79.06
71177;DHT22;58877;51.992;4.504;2022-07-23T03:19:09;15.66;79.00
71177;DHT22;58877;51.992;4.504;2022-07-23T03:21:35;15.61;79.38
71177;DHT22;58877;51.992;4.504;2022-07-23T03:24:06;15.54;79.38
71177;DHT22;58877;51.992;4.504;2022-07-23T03:26:32;15.50;79.40
71177;DHT22;58877;51.992;4.504;2022-07-23T03:28:58;15.44;79.50
71177;DHT22;58877;51.992;4.504;2022-07-23T03:31:23;15.40;79.80
71177;DHT22;58877;51.992;4.504;2022-07-23T03:33:49;15.38;80.06
71177;DHT22;58877;51.992;4.504;2022-07-23T03:36:15;15.38;80.10
71177;DHT22;58877;51.992;4.504;2022-07-23T03:38:44;15.38;80.02
71177;DHT22;58877;51.992;4.504;2022-07-23T03:41:09;15.33;79.64
71177;DHT22;58877;51.992;4.504;2022-07-23T03:43:35;15.39;79.64
71177;DHT22;58877;51.992;4.504;2022-07-23T03:46:00;15.51;79.07
71177;DHT22;58877;51.992;4.504;2022-07-23T03:48:26;15.63;79.16
71177;DHT22;58877;51.992;4.504;2022-07-23T03:50:52;15.60;79.29
71177;DHT22;58877;51.992;4.504;2022-07-23T03:53:18;15.54;79.26
71177;DHT22;58877;51.992;4.504;2022-07-23T03:55:44;15.49;79.07
71177;DHT22;58877;51.992;4.504;2022-07-23T03:58:09;15.50;79.43
71177;DHT22;58877;51.992;4.504;2022-07-23T04:00:35;15.56;79.58
71177;DHT22;58877;51.992;4.504;2022-07-23T04:03:01;15.59;79.52
71177;DHT22;58877;51.992;4.504;2022-07-23T04:05:26;15.56;79.66
71177;DHT22;58877;51.992;4.504;2022-07-23T04:07:52;15.47;79.77
71177;DHT22;58877;51.992;4.504;2022-07-23T04:10:19;15.42;80.00
71177;DHT22;58877;51.992;4.504;2022-07-23T04:12:46;15.54;80.16
71177;DHT22;58877;51.992;4.504;2022-07-23T04:15:11;15.71;79.50
71177;DHT22;58877;51.992;4.504;2022-07-23T04:17:37;15.93;78.67
71177;DHT22;58877;51.992;4.504;2022-07-23T04:20:04;15.74;79.01
71177;DHT22;58877;51.992;4.504;2022-07-23T04:22:30;15.54;79.77
71177;DHT22;58877;51.992;4.504;2022-07-23T04:24:56;15.49;80.47
71177;DHT22;58877;51.992;4.504;2022-07-23T04:27:24;15.49;80.18
71177;DHT22;58877;51.992;4.504;2022-07-23T04:29:50;15.56;80.48
71177;DHT22;58877;51.992;4.504;2022-07-23T04:32:15;15.71;80.14
71177;DHT22;58877;51.992;4.504;2022-07-23T04:34:41;15.71;80.00
71177;DHT22;58877;51.992;4.504;2022-07-23T04:37:06;15.73;79.84
71177;DHT22;58877;51.992;4.504;2022-07-23T04:39:32;15.77;79.71
71177;DHT22;58877;51.992;4.504;2022-07-23T04:41:58;15.86;79.65
71177;DHT22;58877;51.992;4.504;2022-07-23T04:44:23;15.87;79.63
71177;DHT22;58877;51.992;4.504;2022-07-23T04:46:49;15.89;79.47
71177;DHT22;58877;51.992;4.504;2022-07-23T04:49:18;15.91;79.45
71177;DHT22;58877;51.992;4.504;2022-07-23T04:51:44;16.04;79.27
71177;DHT22;58877;51.992;4.504;2022-07-23T04:54:09;16.18;78.89
71177;DHT22;58877;51.992;4.504;2022-07-23T04:56:35;16.24;78.61
71177;DHT22;58877;51.992;4.504;2022-07-23T04:59:00;16.31;78.25
71177;DHT22;58877;51.992;4.504;2022-07-23T05:01:26;16.31;78.35
71177;DHT22;58877;51.992;4.504;2022-07-23T05:03:52;16.24;78.65
71177;DHT22;58877;51.992;4.504;2022-07-23T05:06:18;16.24;78.93
71177;DHT22;58877;51.992;4.504;2022-07-23T05:08:44;16.27;79.33
71177;DHT22;58877;51.992;4.504;2022-07-23T05:11:36;16.37;79.30
71177;DHT22;58877;51.992;4.504;2022-07-23T05:14:05;16.42;79.24
71177;DHT22;58877;51.992;4.504;2022-07-23T05:16:32;16.54;79.21
71177;DHT22;58877;51.992;4.504;2022-07-23T05:18:57;16.59;79.19
71177;DHT22;58877;51.992;4.504;2022-07-23T05:21:23;16.68;79.33
71177;DHT22;58877;51.992;4.504;2022-07-23T05:23:49;16.78;79.22
71177;DHT22;58877;51.992;4.504;2022-07-23T05:26:18;16.86;78.97
71177;DHT22;58877;51.992;4.504;2022-07-23T05:28:43;16.95;78.87
71177;DHT22;58877;51.992;4.504;2022-07-23T05:31:09;17.02;78.50
71177;DHT22;58877;51.992;4.504;2022-07-23T05:33:37;17.08;78.45
71177;DHT22;58877;51.992;4.504;2022-07-23T05:36:04;17.18;78.45
71177;DHT22;58877;51.992;4.504;2022-07-23T05:38:31;17.24;78.21
71177;DHT22;58877;51.992;4.504;2022-07-23T05:40:57;17.34;78.20
71177;DHT22;58877;51.992;4.504;2022-07-23T05:43:26;17.40;77.31
71177;DHT22;58877;51.992;4.504;2022-07-23T05:45:55;17.57;77.32
71177;DHT22;58877;51.992;4.504;2022-07-23T05:48:20;17.73;76.10
71177;DHT22;58877;51.992;4.504;2022-07-23T05:50:47;17.84;74.81
71177;DHT22;58877;51.992;4.504;2022-07-23T05:53:13;17.87;74.99
71177;DHT22;58877;51.992;4.504;2022-07-23T05:55:42;17.81;75.39
71177;DHT22;58877;51.992;4.504;2022-07-23T05:58:13;17.83;75.06
71177;DHT22;58877;51.992;4.504;2022-07-23T06:00:47;17.97;74.49
71177;DHT22;58877;51.992;4.504;2022-07-23T06:03:13;18.07;73.85
71177;DHT22;58877;51.992;4.504;2022-07-23T06:05:38;17.95;73.24
71177;DHT22;58877;51.992;4.504;2022-07-23T06:08:04;17.97;72.93
71177;DHT22;58877;51.992;4.504;2022-07-23T06:10:32;18.04;73.33
71177;DHT22;58877;51.992;4.504;2022-07-23T06:12:58;18.07;73.68
71177;DHT22;58877;51.992;4.504;2022-07-23T06:15:29;18.01;72.95
71177;DHT22;58877;51.992;4.504;2022-07-23T06:17:58;17.97;70.47
71177;DHT22;58877;51.992;4.504;2022-07-23T06:20:33;18.02;71.66
71177;DHT22;58877;51.992;4.504;2022-07-23T06:22:59;18.19;72.46
71177;DHT22;58877;51.992;4.504;2022-07-23T06:25:27;18.31;71.58
71177;DHT22;58877;51.992;4.504;2022-07-23T06:27:53;18.32;72.00
71177;DHT22;58877;51.992;4.504;2022-07-23T06:30:19;18.12;70.40
71177;DHT22;58877;51.992;4.504;2022-07-23T06:32:46;18.21;71.54
71177;DHT22;58877;51.992;4.504;2022-07-23T06:35:37;18.45;70.10
71177;DHT22;58877;51.992;4.504;2022-07-23T06:38:03;18.63;70.52
71177;DHT22;58877;51.992;4.504;2022-07-23T06:40:29;18.79;69.15
71177;DHT22;58877;51.992;4.504;2022-07-23T06:43:01;19.03;68.87
71177;DHT22;58877;51.992;4.504;2022-07-23T06:45:29;19.27;68.01
71177;DHT22;58877;51.992;4.504;2022-07-23T06:47:55;19.27;66.03
71177;DHT22;58877;51.992;4.504;2022-07-23T06:50:20;19.34;67.56
71177;DHT22;58877;51.992;4.504;2022-07-23T06:52:49;19.35;66.41
71177;DHT22;58877;51.992;4.504;2022-07-23T06:55:15;19.38;65.98
71177;DHT22;58877;51.992;4.504;2022-07-23T06:57:41;19.55;66.94
71177;DHT22;58877;51.992;4.504;2022-07-23T07:00:07;19.64;65.86
71177;DHT22;58877;51.992;4.504;2022-07-23T07:02:33;19.81;66.46
71177;DHT22;58877;51.992;4.504;2022-07-23T07:04:59;19.98;64.47
71177;DHT22;58877;51.992;4.504;2022-07-23T07:07:24;20.25;64.39
71177;DHT22;58877;51.992;4.504;2022-07-23T07:10:10;20.57;64.39
71177;DHT22;58877;51.992;4.504;2022-07-23T07:12:36;20.86;63.65
71177;DHT22;58877;51.992;4.504;2022-07-23T07:15:02;20.82;62.18
71177;DHT22;58877;51.992;4.504;2022-07-23T07:17:31;20.87;63.43
71177;DHT22;58877;51.992;4.504;2022-07-23T07:19:57;20.86;62.38
71177;DHT22;58877;51.992;4.504;2022-07-23T07:22:23;20.89;60.82
71177;DHT22;58877;51.992;4.504;2022-07-23T07:24:49;20.56;62.23
71177;DHT22;58877;51.992;4.504;2022-07-23T07:36:57;20.65;63.43
71177;DHT22;58877;51.992;4.504;2022-07-23T07:41:57;20.75;62.42
71177;DHT22;58877;51.992;4.504;2022-07-23T07:44:23;20.82;62.56
71177;DHT22;58877;51.992;4.504;2022-07-23T07:46:48;21.06;62.63
71177;DHT22;58877;51.992;4.504;2022-07-23T07:49:14;21.28;62.18
71177;DHT22;58877;51.992;4.504;2022-07-23T07:51:42;21.64;61.21
71177;DHT22;58877;51.992;4.504;2022-07-23T07:54:08;21.91;59.54
71177;DHT22;58877;51.992;4.504;2022-07-23T07:56:33;22.19;60.16
71177;DHT22;58877;51.992;4.504;2022-07-23T07:58:58;22.11;56.78
71177;DHT22;58877;51.992;4.504;2022-07-23T08:01:25;22.21;56.78
71177;DHT22;58877;51.992;4.504;2022-07-23T08:03:50;22.02;56.67
71177;DHT22;58877;51.992;4.504;2022-07-23T08:06:15;21.74;59.96
71177;DHT22;58877;51.992;4.504;2022-07-23T08:08:41;22.15;59.68
71177;DHT22;58877;51.992;4.504;2022-07-23T08:11:06;22.55;58.87
71177;DHT22;58877;51.992;4.504;2022-07-23T08:13:32;22.76;58.58
71177;DHT22;58877;51.992;4.504;2022-07-23T08:15:57;23.02;57.09
71177;DHT22;58877;51.992;4.504;2022-07-23T08:18:23;23.11;56.37
71177;DHT22;58877;51.992;4.504;2022-07-23T08:20:48;23.16;56.14
71177;DHT22;58877;51.992;4.504;2022-07-23T08:23:14;23.28;52.92
71177;DHT22;58877;51.992;4.504;2022-07-23T08:25:41;23.14;54.74
71177;DHT22;58877;51.992;4.504;2022-07-23T08:28:13;23.34;54.49
71177;DHT22;58877;51.992;4.504;2022-07-23T08:30:41;23.13;55.18
71177;DHT22;58877;51.992;4.504;2022-07-23T08:33:10;22.90;54.60
71177;DHT22;58877;51.992;4.504;2022-07-23T08:35:41;23.23;54.71
71177;DHT22;58877;51.992;4.504;2022-07-23T08:38:09;23.50;54.26
71177;DHT22;58877;51.992;4.504;2022-07-23T08:40:37;23.86;53.00
71177;DHT22;58877;51.992;4.504;2022-07-23T08:43:06;23.85;49.24
71177;DHT22;58877;51.992;4.504;2022-07-23T08:45:37;23.85;52.36
71177;DHT22;58877;51.992;4.504;2022-07-23T08:48:11;24.11;53.05
71177;DHT22;58877;51.992;4.504;2022-07-23T08:50:37;24.26;50.78
71177;DHT22;58877;51.992;4.504;2022-07-23T08:53:06;23.84;50.37
71177;DHT22;58877;51.992;4.504;2022-07-23T08:55:32;23.81;53.88
71177;DHT22;58877;51.992;4.504;2022-07-23T08:57:58;24.15;53.30
71177;DHT22;58877;51.992;4.504;2022-07-23T09:00:23;24.46;52.33
71177;DHT22;58877;51.992;4.504;2022-07-23T09:02:50;24.53;51.29
71177;DHT22;58877;51.992;4.504;2022-07-23T09:05:17;24.70;51.82
71177;DHT22;58877;51.992;4.504;2022-07-23T09:08:11;24.83;49.15
71177;DHT22;58877;51.992;4.504;2022-07-23T09:10:49;24.86;48.14
71177;DHT22;58877;51.992;4.504;2022-07-23T09:16:06;23.97;48.70
71177;DHT22;58877;51.992;4.504;2022-07-23T09:18:52;23.98;51.46
71177;DHT22;58877;51.992;4.504;2022-07-23T09:23:59;24.16;50.81
71177;DHT22;58877;51.992;4.504;2022-07-23T09:26:32;24.43;48.57
71177;DHT22;58877;51.992;4.504;2022-07-23T09:31:41;24.74;48.73
71177;DHT22;58877;51.992;4.504;2022-07-23T09:34:29;24.87;48.99
71177;DHT22;58877;51.992;4.504;2022-07-23T09:36:58;25.13;49.45
71177;DHT22;58877;51.992;4.504;2022-07-23T09:39:33;25.08;44.44
71177;DHT22;58877;51.992;4.504;2022-07-23T09:42:23;24.19;46.43
71177;DHT22;58877;51.992;4.504;2022-07-23T09:44:51;23.46;48.64
71177;DHT22;58877;51.992;4.504;2022-07-23T09:47:17;22.84;49.87
71177;DHT22;58877;51.992;4.504;2022-07-23T09:52:30;22.79;50.48
71177;DHT22;58877;51.992;4.504;2022-07-23T09:55:03;22.59;51.95
71177;DHT22;58877;51.992;4.504;2022-07-23T09:57:31;23.02;50.07
71177;DHT22;58877;51.992;4.504;2022-07-23T10:00:03;23.18;49.86
71177;DHT22;58877;51.992;4.504;2022-07-23T10:02:32;23.46;49.97
71177;DHT22;58877;51.992;4.504;2022-07-23T10:04:59;23.72;49.45
71177;DHT22;58877;51.992;4.504;2022-07-23T10:07:26;24.22;48.55
71177;DHT22;58877;51.992;4.504;2022-07-23T10:09:55;24.77;47.53
71177;DHT22;58877;51.992;4.504;2022-07-23T10:12:22;25.04;45.27
71177;DHT22;58877;51.992;4.504;2022-07-23T10:14:59;24.66;46.89
71177;DHT22;58877;51.992;4.504;2022-07-23T10:17:28;24.33;47.25
71177;DHT22;58877;51.992;4.504;2022-07-23T10:19:53;24.08;48.46
71177;DHT22;58877;51.992;4.504;2022-07-23T10:22:24;24.37;46.20
71177;DHT22;58877;51.992;4.504;2022-07-23T10:30:16;26.12;45.92
71177;DHT22;58877;51.992;4.504;2022-07-23T10:38:37;25.26;45.04
71177;DHT22;58877;51.992;4.504;2022-07-23T10:41:07;24.94;45.23
71177;DHT22;58877;51.992;4.504;2022-07-23T10:43:32;24.70;46.66
71177;DHT22;58877;51.992;4.504;2022-07-23T10:46:20;24.36;45.89
71177;DHT22;58877;51.992;4.504;2022-07-23T10:54:42;23.77;49.03
71177;DHT22;58877;51.992;4.504;2022-07-23T10:57:13;24.02;48.51
71177;DHT22;58877;51.992;4.504;2022-07-23T11:02:33;24.32;47.70
71177;DHT22;58877;51.992;4.504;2022-07-23T11:05:14;23.95;47.23
71177;DHT22;58877;51.992;4.504;2022-07-23T11:10:38;24.19;47.39
71177;DHT22;58877;51.992;4.504;2022-07-23T11:24:10;24.04;48.48
71177;DHT22;58877;51.992;4.504;2022-07-23T11:32:22;24.32;45.80
71177;DHT22;58877;51.992;4.504;2022-07-23T11:34:50;24.39;45.76
71177;DHT22;58877;51.992;4.504;2022-07-23T11:37:38;23.91;47.08
71177;DHT22;58877;51.992;4.504;2022-07-23T11:40:08;24.22;47.35
71177;DHT22;58877;51.992;4.504;2022-07-23T11:42:36;24.80;47.31
71177;DHT22;58877;51.992;4.504;2022-07-23T11:45:01;25.38;44.62
71177;DHT22;58877;51.992;4.504;2022-07-23T11:47:27;25.67;43.25
71177;DHT22;58877;51.992;4.504;2022-07-23T11:50:02;25.38;43.41
71177;DHT22;58877;51.992;4.504;2022-07-23T11:52:28;25.42;43.32
71177;DHT22;58877;51.992;4.504;2022-07-23T11:55:08;25.33;45.19
71177;DHT22;58877;51.992;4.504;2022-07-23T11:57:40;25.69;43.41
71177;DHT22;58877;51.992;4.504;2022-07-23T12:00:27;25.77;42.41
71177;DHT22;58877;51.992;4.504;2022-07-23T12:02:57;25.34;44.19
71177;DHT22;58877;51.992;4.504;2022-07-23T12:05:26;25.65;43.62
71177;DHT22;58877;51.992;4.504;2022-07-23T12:07:53;25.79;41.54
71177;DHT22;58877;51.992;4.504;2022-07-23T12:10:24;24.97;42.79
71177;DHT22;58877;51.992;4.504;2022-07-23T12:12:53;25.26;46.37
71177;DHT22;58877;51.992;4.504;2022-07-23T12:15:22;25.48;42.80
71177;DHT22;58877;51.992;4.504;2022-07-23T12:17:50;25.48;44.44
71177;DHT22;58877;51.992;4.504;2022-07-23T12:20:20;25.51;42.43
71177;DHT22;58877;51.992;4.504;2022-07-23T12:22:49;25.47;42.82
71177;DHT22;58877;51.992;4.504;2022-07-23T12:25:17;25.71;43.37
71177;DHT22;58877;51.992;4.504;2022-07-23T12:27:44;25.77;43.28
71177;DHT22;58877;51.992;4.504;2022-07-23T12:30:20;25.91;44.83
71177;DHT22;58877;51.992;4.504;2022-07-23T12:32:48;26.09;43.97
71177;DHT22;58877;51.992;4.504;2022-07-23T12:35:14;26.59;44.08
71177;DHT22;58877;51.992;4.504;2022-07-23T12:37:42;27.11;43.31
71177;DHT22;58877;51.992;4.504;2022-07-23T12:45:21;27.49;39.42
71177;DHT22;58877;51.992;4.504;2022-07-23T12:47:52;26.86;41.93
71177;DHT22;58877;51.992;4.504;2022-07-23T12:50:37;26.66;42.69
71177;DHT22;58877;51.992;4.504;2022-07-23T12:53:10;26.69;42.93
71177;DHT22;58877;51.992;4.504;2022-07-23T12:55:37;26.79;41.84
71177;DHT22;58877;51.992;4.504;2022-07-23T12:58:05;26.37;42.76
71177;DHT22;58877;51.992;4.504;2022-07-23T13:00:32;26.13;42.83
71177;DHT22;58877;51.992;4.504;2022-07-23T13:02:58;26.59;44.48
71177;DHT22;58877;51.992;4.504;2022-07-23T13:05:23;26.61;41.63
71177;DHT22;58877;51.992;4.504;2022-07-23T13:07:49;26.21;42.51
71177;DHT22;58877;51.992;4.504;2022-07-23T13:10:14;26.31;43.93
71177;DHT22;58877;51.992;4.504;2022-07-23T13:12:40;26.66;43.77
71177;DHT22;58877;51.992;4.504;2022-07-23T13:15:05;27.15;43.10
71177;DHT22;58877;51.992;4.504;2022-07-23T13:17:31;27.57;43.15
71177;DHT22;58877;51.992;4.504;2022-07-23T13:19:57;28.32;41.28
71177;DHT22;58877;51.992;4.504;2022-07-23T13:22:22;28.80;40.46
71177;DHT22;58877;51.992;4.504;2022-07-23T13:24:47;28.10;39.79
71177;DHT22;58877;51.992;4.504;2022-07-23T13:27:13;28.29;40.68
71177;DHT22;58877;51.992;4.504;2022-07-23T13:29:39;27.82;40.43
71177;DHT22;58877;51.992;4.504;2022-07-23T13:32:05;27.49;41.61
71177;DHT22;58877;51.992;4.504;2022-07-23T13:34:30;27.08;41.91
71177;DHT22;58877;51.992;4.504;2022-07-23T13:36:55;26.42;44.44
71177;DHT22;58877;51.992;4.504;2022-07-23T13:39:21;25.69;46.70
71177;DHT22;58877;51.992;4.504;2022-07-23T13:41:46;25.62;46.08
71177;DHT22;58877;51.992;4.504;2022-07-23T13:44:12;25.91;48.36
71177;DHT22;58877;51.992;4.504;2022-07-23T13:46:37;26.18;45.14
71177;DHT22;58877;51.992;4.504;2022-07-23T13:49:03;26.53;43.88
71177;DHT22;58877;51.992;4.504;2022-07-23T13:51:28;27.17;43.43
71177;DHT22;58877;51.992;4.504;2022-07-23T13:53:54;27.57;41.00
71177;DHT22;58877;51.992;4.504;2022-07-23T13:56:20;27.58;41.49
71177;DHT22;58877;51.992;4.504;2022-07-23T13:58:45;27.78;43.63
71177;DHT22;58877;51.992;4.504;2022-07-23T14:01:11;27.42;42.09
71177;DHT22;58877;51.992;4.504;2022-07-23T14:03:36;26.50;42.58
71177;DHT22;58877;51.992;4.504;2022-07-23T14:06:02;26.15;44.22
71177;DHT22;58877;51.992;4.504;2022-07-23T14:08:27;26.19;44.39
71177;DHT22;58877;51.992;4.504;2022-07-23T14:10:53;26.69;44.48
71177;DHT22;58877;51.992;4.504;2022-07-23T14:13:18;26.94;41.74
71177;DHT22;58877;51.992;4.504;2022-07-23T14:15:44;26.97;45.20
71177;DHT22;58877;51.992;4.504;2022-07-23T14:18:09;26.90;42.73
71177;DHT22;58877;51.992;4.504;2022-07-23T14:20:35;26.43;44.72
71177;DHT22;58877;51.992;4.504;2022-07-23T14:23:00;26.56;46.94
71177;DHT22;58877;51.992;4.504;2022-07-23T14:25:26;26.74;43.95
71177;DHT22;58877;51.992;4.504;2022-07-23T14:27:53;27.12;44.84
71177;DHT22;58877;51.992;4.504;2022-07-23T14:30:18;27.44;42.46
71177;DHT22;58877;51.992;4.504;2022-07-23T14:32:44;27.28;44.24
71177;DHT22;58877;51.992;4.504;2022-07-23T14:35:09;27.26;43.70
71177;DHT22;58877;51.992;4.504;2022-07-23T14:37:35;26.97;45.39
71177;DHT22;58877;51.992;4.504;2022-07-23T14:40:00;26.82;46.44
71177;DHT22;58877;51.992;4.504;2022-07-23T14:42:26;26.39;47.91
71177;DHT22;58877;51.992;4.504;2022-07-23T14:44:51;26.52;47.18
71177;DHT22;58877;51.992;4.504;2022-07-23T14:47:17;26.54;47.57
71177;DHT22;58877;51.992;4.504;2022-07-23T14:49:43;26.57;47.69
71177;DHT22;58877;51.992;4.504;2022-07-23T14:52:08;26.53;47.43
71177;DHT22;58877;51.992;4.504;2022-07-23T14:54:34;27.15;46.42
71177;DHT22;58877;51.992;4.504;2022-07-23T14:57:02;26.80;47.10
71177;DHT22;58877;51.992;4.504;2022-07-23T14:59:29;26.72;47.39
71177;DHT22;58877;51.992;4.504;2022-07-23T15:01:56;27.06;47.98
71177;DHT22;58877;51.992;4.504;2022-07-23T15:04:22;27.49;45.89
71177;DHT22;58877;51.992;4.504;2022-07-23T15:06:48;28.16;45.72
71177;DHT22;58877;51.992;4.504;2022-07-23T15:09:16;29.38;44.61
71177;DHT22;58877;51.992;4.504;2022-07-23T15:11:42;29.34;41.74
71177;DHT22;58877;51.992;4.504;2022-07-23T15:14:08;28.27;41.11
71177;DHT22;58877;51.992;4.504;2022-07-23T15:16:34;27.06;43.53
71177;DHT22;58877;51.992;4.504;2022-07-23T15:19:00;26.83;44.50
71177;DHT22;58877;51.992;4.504;2022-07-23T15:21:28;27.42;44.61
71177;DHT22;58877;51.992;4.504;2022-07-23T15:23:57;28.63;44.74
71177;DHT22;58877;51.992;4.504;2022-07-23T15:26:27;29.42;41.04
71177;DHT22;58877;51.992;4.504;2022-07-23T15:28:52;29.10;41.11
71177;DHT22;58877;51.992;4.504;2022-07-23T15:31:18;29.11;41.67
71177;DHT22;58877;51.992;4.504;2022-07-23T15:33:44;29.28;40.55
71177;DHT22;58877;51.992;4.504;2022-07-23T15:36:09;28.57;41.94
71177;DHT22;58877;51.992;4.504;2022-07-23T15:38:35;28.39;43.37
71177;DHT22;58877;51.992;4.504;2022-07-23T15:41:00;28.45;42.38
71177;DHT22;58877;51.992;4.504;2022-07-23T15:43:26;28.50;41.91
71177;DHT22;58877;51.992;4.504;2022-07-23T15:45:52;28.70;39.97
71177;DHT22;58877;51.992;4.504;2022-07-23T15:48:19;28.23;42.92
71177;DHT22;58877;51.992;4.504;2022-07-23T15:50:44;28.31;42.82
71177;DHT22;58877;51.992;4.504;2022-07-23T15:53:10;28.90;41.92
71177;DHT22;58877;51.992;4.504;2022-07-23T15:55:36;28.94;40.86
71177;DHT22;58877;51.992;4.504;2022-07-23T15:58:04;28.87;41.76
71177;DHT22;58877;51.992;4.504;2022-07-23T16:00:29;29.10;40.87
71177;DHT22;58877;51.992;4.504;2022-07-23T16:02:54;29.37;42.96
71177;DHT22;58877;51.992;4.504;2022-07-23T16:05:20;28.50;41.85
71177;DHT22;58877;51.992;4.504;2022-07-23T16:08:00;28.15;42.91
71177;DHT22;58877;51.992;4.504;2022-07-23T16:10:26;28.43;44.36
71177;DHT22;58877;51.992;4.504;2022-07-23T16:12:51;28.45;42.32
71177;DHT22;58877;51.992;4.504;2022-07-23T16:15:16;28.06;44.31
71177;DHT22;58877;51.992;4.504;2022-07-23T16:17:42;28.23;39.70
71177;DHT22;58877;51.992;4.504;2022-07-23T16:20:08;28.33;38.51
71177;DHT22;58877;51.992;4.504;2022-07-23T16:22:34;28.26;38.99
71177;DHT22;58877;51.992;4.504;2022-07-23T16:25:00;27.82;39.26
71177;DHT22;58877;51.992;4.504;2022-07-23T16:27:26;27.71;41.14
71177;DHT22;58877;51.992;4.504;2022-07-23T16:29:52;27.37;40.25
71177;DHT22;58877;51.992;4.504;2022-07-23T16:32:17;28.13;39.34
71177;DHT22;58877;51.992;4.504;2022-07-23T16:34:42;28.02;39.63
71177;DHT22;58877;51.992;4.504;2022-07-23T16:37:09;28.64;38.68
71177;DHT22;58877;51.992;4.504;2022-07-23T16:39:35;29.17;37.64